createdAt,value
2018-11-14T00:00:54.421Z,81.86
2018-11-14T00:01:54.434Z,81.71
2018-11-14T00:02:54.434Z,81.82
2018-11-14T00:03:54.375Z,81.92
2018-11-14T00:04:54.351Z,81.82
2018-11-14T00:05:54.358Z,81.82
2018-11-14T00:06:54.335Z,82.03
2018-11-14T00:07:54.365Z,81.71
2018-11-14T00:08:54.309Z,82.23
2018-11-14T00:09:54.343Z,81.92
2018-11-14T00:10:54.303Z,81.82
2018-11-14T00:11:54.280Z,81.82
2018-11-14T00:12:54.275Z,81.71
2018-11-14T00:13:54.257Z,81.82
2018-11-14T00:14:54.244Z,81.86
2018-11-14T00:15:54.302Z,81.86
2018-11-14T00:16:54.223Z,81.92
2018-11-14T00:17:54.210Z,81.86
2018-11-14T00:18:54.200Z,81.82
2018-11-14T00:19:54.638Z,82.06
2018-11-14T00:20:54.199Z,81.86
2018-11-14T00:21:54.166Z,82.17
2018-11-14T00:22:54.162Z,82.37
2018-11-14T00:23:54.221Z,81.65
2018-11-14T00:24:54.456Z,81.76
2018-11-14T00:25:54.145Z,81.76
2018-11-14T00:26:54.125Z,81.96
2018-11-14T00:27:54.167Z,82.06
2018-11-14T00:28:54.120Z,82.41
2018-11-14T00:29:54.079Z,82.00
2018-11-14T00:30:54.094Z,81.90
2018-11-14T00:31:54.102Z,81.79
2018-11-14T00:32:54.049Z,82.00
2018-11-14T00:33:54.034Z,82.06
2018-11-14T00:34:54.137Z,82.20
2018-11-14T00:35:54.033Z,82.41
2018-11-14T00:36:54.030Z,83.44
2018-11-14T00:37:54.014Z,82.82
2018-11-14T00:38:53.981Z,82.31
2018-11-14T00:39:53.969Z,82.20
2018-11-14T00:40:53.962Z,82.51
2018-11-14T00:41:53.952Z,83.03
2018-11-14T00:42:53.955Z,82.82
2018-11-14T00:43:53.925Z,82.71
2018-11-14T00:44:53.920Z,82.82
2018-11-14T00:45:53.904Z,82.82
2018-11-14T00:46:53.901Z,82.71
2018-11-14T00:47:53.909Z,82.82
2018-11-14T00:48:53.877Z,82.71
2018-11-14T00:49:53.870Z,82.71
2018-11-14T00:50:53.848Z,82.82
2018-11-14T00:51:53.849Z,82.92
2018-11-14T00:52:53.856Z,83.23
2018-11-14T00:53:53.816Z,83.13
2018-11-14T00:54:53.813Z,82.92
2018-11-14T00:55:53.797Z,82.31
2018-11-14T00:56:53.813Z,82.71
2018-11-14T00:57:53.799Z,82.82
2018-11-14T00:58:53.768Z,82.92
2018-11-14T00:59:53.784Z,82.51
2018-11-14T01:00:53.759Z,82.82
2018-11-14T01:01:53.776Z,82.62
2018-11-14T01:02:53.742Z,82.86
2018-11-14T01:03:53.827Z,83.03
2018-11-14T01:04:53.700Z,82.92
2018-11-14T01:05:53.687Z,82.82
2018-11-14T01:06:53.685Z,82.76
2018-11-14T01:07:53.701Z,82.71
2018-11-14T01:08:53.653Z,82.76
2018-11-14T01:09:53.873Z,82.65
2018-11-14T01:10:53.634Z,82.86
2018-11-14T01:11:53.623Z,83.27
2018-11-14T01:12:53.646Z,83.37
2018-11-14T01:13:53.601Z,83.37
2018-11-14T01:14:53.663Z,83.17
2018-11-14T01:15:53.600Z,83.58
2018-11-14T01:16:53.584Z,83.06
2018-11-14T01:17:53.621Z,83.58
2018-11-14T01:18:53.551Z,84.40
2018-11-14T01:19:53.562Z,83.99
2018-11-14T01:20:53.526Z,84.30
2018-11-14T01:21:53.527Z,84.75
2018-11-14T01:22:53.587Z,84.75
2018-11-14T01:23:53.513Z,84.81
2018-11-14T01:24:53.483Z,84.71
2018-11-14T01:25:53.571Z,84.64
2018-11-14T01:27:02.615Z,84.85
2018-11-14T01:27:53.508Z,84.13
2018-11-14T01:28:53.438Z,83.72
2018-11-14T01:29:53.529Z,84.34
2018-11-14T01:30:53.422Z,84.75
2018-11-14T01:31:53.421Z,84.64
2018-11-14T01:32:53.580Z,84.75
2018-11-14T01:33:53.436Z,84.85
2018-11-14T01:34:53.482Z,84.75
2018-11-14T01:35:53.541Z,84.54
2018-11-14T01:36:53.357Z,84.64
2018-11-14T01:37:53.415Z,84.64
2018-11-14T01:38:53.390Z,84.13
2018-11-14T01:39:53.353Z,84.75
2018-11-14T01:40:53.312Z,84.64
2018-11-14T01:41:53.312Z,84.89
2018-11-14T01:42:53.336Z,84.48
2018-11-14T01:43:53.288Z,84.23
2018-11-14T01:44:53.264Z,84.79
2018-11-14T01:45:53.263Z,85.41
2018-11-14T01:46:53.249Z,85.16
2018-11-14T01:47:53.272Z,84.69
2018-11-14T01:48:53.224Z,84.99
2018-11-14T01:49:53.247Z,84.99
2018-11-14T01:50:53.209Z,84.64
2018-11-14T01:51:53.250Z,85.51
2018-11-14T01:52:53.198Z,84.64
2018-11-14T01:53:53.199Z,84.44
2018-11-14T01:54:53.170Z,84.75
2018-11-14T01:55:53.144Z,85.47
2018-11-14T01:56:53.232Z,85.06
2018-11-14T01:57:53.320Z,85.16
2018-11-14T01:58:53.113Z,85.16
2018-11-14T01:59:53.099Z,84.85
2018-11-14T02:00:53.102Z,84.85
2018-11-14T02:01:53.082Z,84.54
2018-11-14T02:02:53.093Z,84.17
2018-11-14T02:03:53.080Z,85.36
2018-11-14T02:04:53.048Z,85.41
2018-11-14T02:05:53.048Z,85.41
2018-11-14T02:06:53.026Z,84.99
2018-11-14T02:07:53.079Z,85.06
2018-11-14T02:08:53.008Z,84.69
2018-11-14T02:09:53.000Z,84.58
2018-11-14T02:11:00.587Z,84.58
2018-11-14T02:11:53.022Z,85.20
2018-11-14T02:12:53.020Z,84.99
2018-11-14T02:13:52.951Z,84.58
2018-11-14T02:14:52.949Z,84.27
2018-11-14T02:15:52.929Z,84.48
2018-11-14T02:16:52.924Z,84.48
2018-11-14T02:17:52.928Z,84.99
2018-11-14T02:18:52.896Z,85.30
2018-11-14T02:19:52.883Z,85.10
2018-11-14T02:20:52.896Z,85.41
2018-11-14T02:21:52.868Z,85.10
2018-11-14T02:22:52.877Z,85.51
2018-11-14T02:23:52.844Z,85.51
2018-11-14T02:24:52.835Z,85.41
2018-11-14T02:25:52.841Z,85.51
2018-11-14T02:26:52.811Z,85.82
2018-11-14T02:27:52.846Z,85.61
2018-11-14T02:28:52.792Z,85.61
2018-11-14T02:29:52.776Z,85.10
2018-11-14T02:30:52.771Z,85.61
2018-11-14T02:31:52.776Z,86.13
2018-11-14T02:32:52.748Z,85.71
2018-11-14T02:33:52.733Z,85.41
2018-11-14T02:34:52.763Z,85.51
2018-11-14T02:35:52.733Z,85.10
2018-11-14T02:36:52.700Z,85.30
2018-11-14T02:37:52.707Z,85.30
2018-11-14T02:38:52.680Z,85.44
2018-11-14T02:39:52.667Z,85.20
2018-11-14T02:40:52.660Z,85.30
2018-11-14T02:41:52.651Z,85.34
2018-11-14T02:42:52.654Z,85.86
2018-11-14T02:43:52.647Z,85.30
2018-11-14T02:44:52.616Z,85.96
2018-11-14T02:45:52.626Z,85.82
2018-11-14T02:46:52.599Z,85.92
2018-11-14T02:47:52.629Z,86.16
2018-11-14T02:48:52.571Z,86.23
2018-11-14T02:49:52.586Z,86.13
2018-11-14T02:50:52.552Z,86.02
2018-11-14T02:51:52.536Z,85.82
2018-11-14T02:52:52.556Z,85.51
2018-11-14T02:53:52.517Z,85.41
2018-11-14T02:54:52.509Z,85.51
2018-11-14T02:55:52.493Z,85.61
2018-11-14T02:56:52.481Z,85.41
2018-11-14T02:57:52.492Z,85.65
2018-11-14T02:58:52.463Z,85.30
2018-11-14T02:59:52.452Z,85.44
2018-11-14T03:00:52.443Z,85.30
2018-11-14T03:01:52.428Z,85.65
2018-11-14T03:02:52.441Z,85.61
2018-11-14T03:03:52.408Z,85.65
2018-11-14T03:04:52.400Z,85.92
2018-11-14T03:05:52.387Z,86.33
2018-11-14T03:06:52.377Z,85.71
2018-11-14T03:07:52.423Z,85.61
2018-11-14T03:08:52.352Z,85.71
2018-11-14T03:09:52.346Z,85.51
2018-11-14T03:10:52.337Z,86.68
2018-11-14T03:11:52.324Z,86.33
2018-11-14T03:12:52.389Z,86.54
2018-11-14T03:13:52.351Z,86.64
2018-11-14T03:14:52.297Z,86.43
2018-11-14T03:15:52.278Z,85.71
2018-11-14T03:16:52.266Z,86.13
2018-11-14T03:17:52.273Z,85.71
2018-11-14T03:18:52.245Z,85.71
2018-11-14T03:19:52.237Z,85.41
2018-11-14T03:20:52.230Z,85.41
2018-11-14T03:21:52.215Z,85.51
2018-11-14T03:22:52.272Z,85.24
2018-11-14T03:23:52.204Z,85.55
2018-11-14T03:24:52.180Z,85.55
2018-11-14T03:25:52.173Z,85.61
2018-11-14T03:26:52.226Z,85.75
2018-11-14T03:27:52.167Z,85.44
2018-11-14T03:28:52.136Z,85.75
2018-11-14T03:29:52.141Z,86.58
2018-11-14T03:30:52.123Z,86.13
2018-11-14T03:31:52.114Z,86.33
2018-11-14T03:32:52.115Z,86.02
2018-11-14T03:33:52.085Z,86.68
2018-11-14T03:34:52.078Z,86.27
2018-11-14T03:37:09.851Z,86.23
2018-11-14T03:38:09.821Z,85.75
2018-11-14T03:39:09.819Z,86.68
2018-11-14T03:40:09.828Z,86.43
2018-11-14T03:41:09.802Z,85.65
2018-11-14T03:42:09.800Z,85.44
2018-11-14T03:43:09.790Z,85.82
2018-11-14T03:44:09.765Z,85.44
2018-11-14T03:45:09.747Z,85.44
2018-11-14T03:46:09.733Z,85.55
2018-11-14T03:47:09.727Z,85.34
2018-11-14T03:48:09.729Z,85.92
2018-11-14T03:49:09.707Z,85.44
2018-11-14T03:50:09.690Z,85.24
2018-11-14T03:51:09.682Z,85.55
2018-11-14T03:52:09.678Z,86.16
2018-11-14T03:53:09.713Z,85.65
2018-11-14T03:54:09.739Z,86.37
2018-11-14T03:55:09.677Z,86.37
2018-11-14T03:56:09.887Z,86.47
2018-11-14T03:57:09.693Z,86.37
2018-11-14T03:58:09.651Z,86.27
2018-11-14T03:59:09.620Z,86.47
2018-11-14T04:00:09.597Z,86.37
2018-11-14T04:01:09.605Z,86.27
2018-11-14T04:02:09.641Z,86.72
2018-11-14T04:03:09.568Z,86.68
2018-11-14T04:04:09.544Z,86.72
2018-11-14T04:05:09.529Z,86.82
2018-11-14T04:06:09.518Z,86.88
2018-11-14T04:07:09.527Z,86.21
2018-11-14T04:08:09.526Z,86.82
2018-11-14T04:09:09.500Z,86.47
2018-11-14T04:10:09.484Z,86.37
2018-11-14T04:11:09.487Z,86.68
2018-11-14T04:12:09.486Z,86.37
2018-11-14T04:13:09.443Z,86.58
2018-11-14T04:14:09.442Z,86.37
2018-11-14T04:15:09.419Z,86.37
2018-11-14T04:16:09.416Z,86.58
2018-11-14T04:17:09.395Z,86.37
2018-11-14T04:18:09.404Z,86.06
2018-11-14T04:19:09.379Z,86.27
2018-11-14T04:20:09.374Z,86.37
2018-11-14T04:21:09.350Z,86.58
2018-11-14T04:22:09.341Z,86.58
2018-11-14T04:23:09.400Z,86.82
2018-11-14T04:24:09.320Z,86.72
2018-11-14T04:25:09.321Z,86.72
2018-11-14T04:26:09.296Z,86.82
2018-11-14T04:27:09.285Z,86.93
2018-11-14T04:28:09.296Z,86.10
2018-11-14T04:29:09.265Z,86.41
2018-11-14T04:30:09.257Z,86.41
2018-11-14T04:31:09.250Z,86.41
2018-11-14T04:32:09.233Z,87.13
2018-11-14T04:33:09.244Z,86.82
2018-11-14T04:34:09.210Z,86.00
2018-11-14T04:35:09.204Z,86.82
2018-11-14T04:36:09.190Z,86.61
2018-11-14T04:37:09.174Z,86.52
2018-11-14T04:38:09.207Z,86.93
2018-11-14T04:39:09.154Z,86.52
2018-11-14T04:40:09.144Z,86.93
2018-11-14T04:41:09.130Z,86.52
2018-11-14T04:42:09.120Z,86.61
2018-11-14T04:43:09.127Z,86.72
2018-11-14T04:44:09.115Z,86.61
2018-11-14T04:45:09.090Z,86.97
2018-11-14T04:46:09.080Z,86.72
2018-11-14T04:47:09.067Z,86.93
2018-11-14T04:48:09.131Z,86.93
2018-11-14T04:49:09.044Z,87.24
2018-11-14T04:50:09.042Z,86.52
2018-11-14T04:51:09.032Z,87.03
2018-11-14T04:52:09.010Z,87.13
2018-11-14T04:53:09.020Z,87.03
2018-11-14T04:54:08.989Z,87.03
2018-11-14T04:55:08.978Z,86.52
2018-11-14T04:56:08.967Z,86.93
2018-11-14T04:57:08.963Z,87.85
2018-11-14T04:58:08.966Z,87.65
2018-11-14T04:59:08.941Z,87.03
2018-11-14T05:00:08.923Z,87.44
2018-11-14T05:01:08.914Z,87.24
2018-11-14T05:02:08.903Z,86.82
2018-11-14T05:03:08.920Z,87.34
2018-11-14T05:04:08.884Z,86.82
2018-11-14T05:05:08.918Z,87.03
2018-11-14T05:06:08.864Z,87.24
2018-11-14T05:07:08.849Z,86.93
2018-11-14T05:08:08.865Z,86.82
2018-11-14T05:09:08.827Z,87.24
2018-11-14T05:10:08.823Z,87.07
2018-11-14T05:11:08.824Z,87.85
2018-11-14T05:12:08.804Z,87.03
2018-11-14T05:13:08.900Z,87.34
2018-11-14T05:14:08.769Z,87.07
2018-11-14T05:15:08.761Z,87.54
2018-11-14T05:16:09.032Z,87.99
2018-11-14T05:17:08.743Z,87.27
2018-11-14T05:18:08.754Z,87.27
2018-11-14T05:19:08.717Z,87.38
2018-11-14T05:20:08.705Z,87.27
2018-11-14T05:21:08.696Z,87.48
2018-11-14T05:22:08.718Z,87.27
2018-11-14T05:23:08.676Z,87.38
2018-11-14T05:24:08.663Z,87.34
2018-11-14T05:25:08.656Z,86.97
2018-11-14T05:26:08.642Z,87.03
2018-11-14T05:27:08.629Z,86.97
2018-11-14T05:28:08.641Z,86.97
2018-11-14T05:29:08.688Z,86.76
2018-11-14T05:30:08.609Z,87.07
2018-11-14T05:31:08.586Z,86.55
2018-11-14T05:32:08.612Z,86.66
2018-11-14T05:33:08.582Z,87.07
2018-11-14T05:34:08.559Z,86.76
2018-11-14T05:35:08.558Z,87.38
2018-11-14T05:36:08.533Z,87.07
2018-11-14T05:37:08.522Z,86.76
2018-11-14T05:38:08.528Z,87.27
2018-11-14T05:39:08.498Z,86.97
2018-11-14T05:40:08.535Z,87.21
2018-11-14T05:41:08.495Z,86.76
2018-11-14T05:42:08.481Z,87.32
2018-11-14T05:43:08.477Z,87.11
2018-11-14T05:44:08.448Z,87.93
2018-11-14T05:45:08.446Z,86.87
2018-11-14T05:46:08.429Z,86.97
2018-11-14T05:47:08.437Z,87.21
2018-11-14T05:48:08.461Z,87.32
2018-11-14T05:49:08.453Z,87.59
2018-11-14T05:50:08.439Z,87.73
2018-11-14T05:51:08.390Z,87.42
2018-11-14T05:52:08.362Z,87.11
2018-11-14T05:53:08.375Z,88.14
2018-11-14T05:54:08.338Z,87.93
2018-11-14T05:55:08.325Z,88.04
2018-11-14T05:56:08.325Z,87.01
2018-11-14T05:57:08.311Z,86.90
2018-11-14T05:58:08.365Z,87.11
2018-11-14T05:59:08.331Z,87.32
2018-11-14T06:00:08.284Z,87.11
2018-11-14T06:01:08.269Z,87.21
2018-11-14T06:02:08.270Z,87.32
2018-11-14T06:03:08.264Z,87.93
2018-11-14T06:04:08.231Z,87.93
2018-11-14T06:05:08.231Z,87.11
2018-11-14T06:06:08.207Z,87.01
2018-11-14T06:07:08.256Z,87.32
2018-11-14T06:08:08.202Z,86.70
2018-11-14T06:09:08.171Z,87.21
2018-11-14T06:10:08.165Z,87.11
2018-11-14T06:11:08.166Z,87.42
2018-11-14T06:12:08.192Z,87.66
2018-11-14T06:13:08.186Z,87.32
2018-11-14T06:14:08.124Z,87.63
2018-11-14T06:15:08.169Z,87.32
2018-11-14T06:16:08.099Z,87.73
2018-11-14T06:17:08.085Z,88.08
2018-11-14T06:18:08.117Z,87.77
2018-11-14T06:19:08.068Z,87.32
2018-11-14T06:20:08.058Z,87.66
2018-11-14T06:21:08.042Z,87.05
2018-11-14T06:22:08.112Z,87.11
2018-11-14T06:23:08.043Z,87.01
2018-11-14T06:24:08.028Z,87.73
2018-11-14T06:25:08.000Z,88.04
2018-11-14T06:26:07.988Z,87.46
2018-11-14T06:27:07.978Z,87.05
2018-11-14T06:28:07.995Z,87.87
2018-11-14T06:29:07.952Z,87.46
2018-11-14T06:30:07.984Z,87.26
2018-11-14T06:31:07.933Z,87.77
2018-11-14T06:32:07.926Z,87.26
2018-11-14T06:33:07.933Z,86.84
2018-11-14T06:34:07.902Z,87.46
2018-11-14T06:35:07.889Z,87.26
2018-11-14T06:36:07.896Z,87.26
2018-11-14T06:37:07.887Z,87.35
2018-11-14T06:38:07.894Z,87.26
2018-11-14T06:39:07.880Z,87.05
2018-11-14T06:40:07.841Z,87.05
2018-11-14T06:41:08.038Z,87.46
2018-11-14T06:42:08.100Z,87.46
2018-11-14T06:43:08.142Z,87.26
2018-11-14T06:44:07.997Z,87.46
2018-11-14T06:45:07.852Z,87.66
2018-11-14T06:46:07.799Z,87.56
2018-11-14T06:47:17.893Z,87.56
2018-11-14T06:48:07.898Z,87.15
2018-11-14T06:49:07.751Z,87.46
2018-11-14T06:50:07.869Z,87.05
2018-11-14T06:51:07.736Z,87.26
2018-11-14T06:52:07.722Z,87.66
2018-11-14T06:53:07.717Z,87.35
2018-11-14T06:54:07.696Z,87.26
2018-11-14T06:55:07.670Z,87.46
2018-11-14T06:56:07.671Z,88.18
2018-11-14T06:57:07.725Z,87.66
2018-11-14T06:58:07.694Z,87.56
2018-11-14T06:59:07.833Z,87.66
2018-11-14T07:00:07.731Z,87.56
2018-11-14T07:01:07.628Z,87.35
2018-11-14T07:02:07.601Z,87.56
2018-11-14T07:03:07.665Z,87.26
2018-11-14T07:04:07.600Z,86.94
2018-11-14T07:05:07.630Z,87.35
2018-11-14T07:06:07.765Z,87.15
2018-11-14T07:07:07.553Z,87.56
2018-11-14T07:08:07.561Z,87.35
2018-11-14T07:09:07.526Z,87.15
2018-11-14T07:10:07.654Z,87.77
2018-11-14T07:11:07.637Z,87.66
2018-11-14T07:12:07.611Z,87.66
2018-11-14T07:13:07.894Z,86.94
2018-11-14T07:14:07.487Z,87.26
2018-11-14T07:15:07.455Z,87.46
2018-11-14T07:16:07.446Z,87.05
2018-11-14T07:17:07.457Z,87.05
2018-11-14T07:18:07.422Z,87.05
2018-11-14T07:19:07.429Z,86.98
2018-11-14T07:20:07.419Z,87.05
2018-11-14T07:21:07.392Z,88.08
2018-11-14T07:22:07.384Z,87.40
2018-11-14T07:23:18.719Z,87.40
2018-11-14T07:24:07.361Z,87.71
2018-11-14T07:25:07.358Z,87.60
2018-11-14T07:26:07.334Z,87.08
2018-11-14T07:27:07.324Z,86.98
2018-11-14T07:28:07.330Z,86.98
2018-11-14T07:29:07.325Z,87.40
2018-11-14T07:30:07.300Z,87.71
2018-11-14T07:31:07.283Z,86.98
2018-11-14T07:32:07.276Z,87.19
2018-11-14T07:33:07.277Z,87.50
2018-11-14T07:34:07.267Z,86.88
2018-11-14T07:35:07.240Z,87.40
2018-11-14T07:36:07.228Z,87.50
2018-11-14T07:37:07.219Z,87.40
2018-11-14T07:38:07.207Z,86.98
2018-11-14T07:39:07.220Z,86.98
2018-11-14T07:40:07.185Z,87.19
2018-11-14T07:41:07.202Z,87.50
2018-11-14T07:42:07.259Z,87.71
2018-11-14T07:43:07.154Z,87.92
2018-11-14T07:44:07.162Z,87.34
2018-11-14T07:45:07.137Z,87.71
2018-11-14T07:46:07.128Z,88.12
2018-11-14T07:47:07.116Z,88.12
2018-11-14T07:48:07.102Z,88.12
2018-11-14T07:49:07.245Z,87.29
2018-11-14T07:50:07.139Z,87.29
2018-11-14T07:51:14.683Z,87.08
2018-11-14T07:52:15.663Z,87.29
2018-11-14T07:53:15.686Z,87.60
2018-11-14T07:54:15.904Z,87.08
2018-11-14T07:56:17.060Z,87.44
2018-11-14T07:57:24.900Z,88.43
2018-11-14T07:58:24.370Z,88.22
2018-11-14T07:59:26.590Z,88.43
2018-11-14T08:00:24.338Z,88.12
2018-11-14T08:01:24.302Z,88.68
2018-11-14T08:02:24.725Z,88.57
2018-11-14T08:04:34.506Z,89.34
2018-11-14T08:05:34.474Z,89.92
2018-11-14T08:06:34.492Z,90.02
2018-11-14T08:07:34.458Z,90.06
2018-11-14T08:08:34.438Z,90.12
2018-11-14T08:09:34.467Z,91.36
2018-11-14T08:10:34.410Z,90.74
2018-11-14T08:11:34.402Z,91.40
2018-11-14T08:12:34.391Z,91.30
2018-11-14T08:13:41.978Z,91.09
2018-11-14T08:15:45.897Z,92.23
2018-11-14T08:16:45.898Z,92.23
2018-11-14T08:17:45.862Z,91.77
2018-11-14T08:18:55.037Z,91.77
2018-11-14T08:19:53.469Z,92.13
2018-11-14T08:20:54.691Z,91.98
2018-11-14T08:21:53.460Z,91.26
2018-11-14T08:22:53.394Z,91.46
2018-11-14T08:23:45.784Z,92.19
2018-11-14T08:24:45.782Z,92.29
2018-11-14T08:25:45.764Z,92.29
2018-11-14T08:26:45.743Z,92.29
2018-11-14T08:27:45.738Z,91.67
2018-11-14T08:28:45.731Z,91.77
2018-11-14T08:29:45.737Z,91.92
2018-11-14T08:30:45.820Z,91.82
2018-11-14T08:31:45.691Z,91.88
2018-11-14T08:32:45.684Z,92.60
2018-11-14T08:33:45.707Z,91.98
2018-11-14T08:34:45.677Z,92.70
2018-11-14T08:35:45.647Z,92.29
2018-11-14T08:36:45.644Z,92.25
2018-11-14T08:37:45.681Z,92.04
2018-11-14T08:38:45.666Z,91.88
2018-11-14T08:39:45.607Z,91.83
2018-11-14T08:40:45.615Z,92.19
2018-11-14T08:41:45.598Z,92.14
2018-11-14T08:42:45.618Z,91.88
2018-11-14T08:43:45.568Z,92.14
2018-11-14T08:44:45.569Z,92.46
2018-11-14T08:45:45.544Z,91.88
2018-11-14T08:46:45.586Z,91.67
2018-11-14T08:47:45.525Z,91.67
2018-11-14T08:48:45.510Z,91.26
2018-11-14T08:49:45.523Z,92.04
2018-11-14T08:50:45.499Z,91.77
2018-11-14T08:51:45.481Z,91.83
2018-11-14T08:52:45.473Z,92.35
2018-11-14T08:53:45.457Z,91.94
2018-11-14T08:54:45.471Z,91.83
2018-11-14T08:55:45.434Z,91.83
2018-11-14T08:56:45.433Z,91.73
2018-11-14T08:57:45.465Z,92.14
2018-11-14T08:58:45.420Z,91.63
2018-11-14T08:59:45.412Z,91.22
2018-11-14T09:00:45.378Z,91.11
2018-11-14T09:01:45.369Z,91.11
2018-11-14T09:02:45.393Z,91.01
2018-11-14T09:03:45.395Z,91.52
2018-11-14T09:04:45.361Z,92.04
2018-11-14T09:05:45.331Z,91.83
2018-11-14T09:06:45.315Z,91.73
2018-11-14T09:07:45.369Z,91.01
2018-11-14T09:08:45.322Z,91.07
2018-11-14T09:09:45.300Z,91.07
2018-11-14T09:10:45.274Z,91.17
2018-11-14T09:11:45.277Z,91.17
2018-11-14T09:12:45.304Z,90.97
2018-11-14T09:13:45.243Z,90.35
2018-11-14T09:14:45.293Z,90.14
2018-11-14T09:15:45.222Z,89.94
2018-11-14T09:16:45.213Z,90.45
2018-11-14T09:17:45.192Z,90.04
2018-11-14T09:18:45.289Z,90.25
2018-11-14T09:19:45.195Z,90.35
2018-11-14T09:20:45.165Z,90.66
2018-11-14T09:21:45.178Z,90.55
2018-11-14T09:22:45.168Z,90.86
2018-11-14T09:23:45.156Z,90.76
2018-11-14T09:24:45.160Z,90.76
2018-11-14T09:25:45.108Z,90.25
2018-11-14T09:26:45.134Z,90.55
2018-11-14T09:27:45.123Z,89.73
2018-11-14T09:28:45.081Z,89.94
2018-11-14T09:29:45.168Z,89.52
2018-11-14T09:30:45.083Z,90.76
2018-11-14T09:31:45.044Z,90.41
2018-11-14T09:32:45.037Z,89.48
2018-11-14T09:33:45.040Z,89.79
2018-11-14T09:34:45.129Z,89.44
2018-11-14T09:35:45.005Z,90.06
2018-11-14T09:36:45.043Z,89.23
2018-11-14T09:37:45.023Z,89.03
2018-11-14T09:38:45.009Z,88.41
2018-11-14T09:39:45.038Z,88.72
2018-11-14T09:40:44.979Z,88.47
2018-11-14T09:41:44.993Z,88.51
2018-11-14T09:42:44.923Z,88.37
2018-11-14T09:43:44.952Z,87.59
2018-11-14T09:44:44.925Z,88.17
2018-11-14T09:45:44.951Z,87.65
2018-11-14T09:46:44.885Z,87.44
2018-11-14T09:47:44.884Z,87.03
2018-11-14T09:48:44.893Z,87.09
2018-11-14T09:49:44.882Z,87.81
2018-11-14T09:50:44.869Z,87.81
2018-11-14T09:51:44.869Z,87.09
2018-11-14T09:52:44.885Z,86.43
2018-11-14T09:53:44.808Z,86.02
2018-11-14T09:54:44.824Z,86.33
2018-11-14T09:55:44.822Z,86.02
2018-11-14T09:56:44.797Z,86.43
2018-11-14T09:57:44.948Z,86.47
2018-11-14T09:58:44.859Z,86.02
2018-11-14T09:59:44.808Z,85.51
2018-11-14T10:00:44.800Z,85.71
2018-11-14T10:01:44.725Z,85.61
2018-11-14T10:02:44.724Z,85.61
2018-11-14T10:03:44.719Z,85.61
2018-11-14T10:04:44.709Z,85.41
2018-11-14T10:05:44.756Z,85.41
2018-11-14T10:06:44.680Z,85.30
2018-11-14T10:07:44.744Z,85.57
2018-11-14T10:08:44.647Z,85.36
2018-11-14T10:09:44.669Z,85.57
2018-11-14T10:10:44.667Z,85.26
2018-11-14T10:11:44.619Z,84.54
2018-11-14T10:12:44.605Z,83.92
2018-11-14T10:13:44.591Z,84.03
2018-11-14T10:14:44.601Z,84.09
2018-11-14T10:15:44.666Z,83.37
2018-11-14T10:16:44.566Z,83.62
2018-11-14T10:17:44.618Z,84.34
2018-11-14T10:18:44.568Z,84.40
2018-11-14T10:19:44.554Z,83.68
2018-11-14T10:20:44.526Z,84.40
2018-11-14T10:21:44.591Z,84.20
2018-11-14T10:22:44.500Z,84.20
2018-11-14T10:23:44.488Z,84.40
2018-11-14T10:24:44.544Z,84.56
2018-11-14T10:25:44.498Z,83.64
2018-11-14T10:26:44.462Z,83.13
2018-11-14T10:27:44.450Z,83.75
2018-11-14T10:28:44.437Z,84.30
2018-11-14T10:29:44.446Z,83.64
2018-11-14T10:30:44.464Z,83.64
2018-11-14T10:31:44.469Z,83.58
2018-11-14T10:32:44.391Z,83.33
2018-11-14T10:33:44.380Z,83.78
2018-11-14T10:34:44.424Z,84.40
2018-11-14T10:35:44.379Z,83.44
2018-11-14T10:36:44.361Z,83.78
2018-11-14T10:37:44.341Z,83.64
2018-11-14T10:38:44.340Z,83.33
2018-11-14T10:39:44.318Z,83.33
2018-11-14T10:40:44.362Z,82.92
2018-11-14T10:41:44.314Z,83.85
2018-11-14T10:42:44.283Z,83.19
2018-11-14T10:43:44.288Z,83.40
2018-11-14T10:44:44.273Z,83.09
2018-11-14T10:45:44.269Z,82.99
2018-11-14T10:46:44.307Z,83.19
2018-11-14T10:47:44.259Z,83.05
2018-11-14T10:48:44.297Z,82.99
2018-11-14T10:49:44.245Z,82.57
2018-11-14T10:50:44.279Z,82.13
2018-11-14T10:51:44.188Z,82.03
2018-11-14T10:52:44.247Z,81.92
2018-11-14T10:53:44.197Z,81.71
2018-11-14T10:54:44.198Z,82.03
2018-11-14T10:55:44.168Z,82.23
2018-11-14T10:56:44.172Z,82.19
2018-11-14T10:57:44.118Z,81.78
2018-11-14T10:58:44.145Z,81.99
2018-11-14T10:59:44.128Z,81.51
2018-11-14T11:00:44.118Z,81.62
2018-11-14T11:01:44.117Z,81.82
2018-11-14T11:02:44.066Z,82.13
2018-11-14T11:03:44.055Z,81.82
2018-11-14T11:04:44.075Z,81.71
2018-11-14T11:05:44.066Z,82.03
2018-11-14T11:06:44.036Z,82.09
2018-11-14T11:07:44.033Z,81.78
2018-11-14T11:08:44.090Z,81.78
2018-11-14T11:09:43.994Z,81.48
2018-11-14T11:10:44.031Z,81.99
2018-11-14T11:11:43.970Z,82.09
2018-11-14T11:12:43.979Z,82.09
2018-11-14T11:13:43.990Z,81.99
2018-11-14T11:14:43.949Z,81.64
2018-11-14T11:15:44.008Z,81.54
2018-11-14T11:16:43.920Z,81.23
2018-11-14T11:17:43.923Z,81.43
2018-11-14T11:18:43.930Z,81.23
2018-11-14T11:19:43.959Z,81.23
2018-11-14T11:20:43.874Z,81.23
2018-11-14T11:21:43.907Z,81.13
2018-11-14T11:22:43.873Z,81.02
2018-11-14T11:23:44.008Z,81.13
2018-11-14T11:24:43.841Z,81.34
2018-11-14T11:25:43.814Z,81.02
2018-11-14T11:26:43.837Z,80.88
2018-11-14T11:27:43.793Z,80.78
2018-11-14T11:28:43.784Z,80.78
2018-11-14T11:29:43.818Z,80.68
2018-11-14T11:30:43.847Z,80.68
2018-11-14T11:31:43.813Z,80.78
2018-11-14T11:32:43.740Z,80.68
2018-11-14T11:33:43.762Z,80.99
2018-11-14T11:34:43.723Z,80.33
2018-11-14T11:35:43.707Z,80.74
2018-11-14T11:36:43.719Z,80.44
2018-11-14T11:37:43.684Z,80.23
2018-11-14T11:38:43.673Z,80.33
2018-11-14T11:39:43.668Z,80.13
2018-11-14T11:40:43.665Z,80.44
2018-11-14T11:41:43.666Z,79.89
2018-11-14T11:42:43.632Z,79.48
2018-11-14T11:43:43.632Z,79.68
2018-11-14T11:44:43.613Z,79.38
2018-11-14T11:45:43.607Z,79.27
2018-11-14T11:46:43.637Z,79.27
2018-11-14T11:47:43.575Z,78.66
2018-11-14T11:48:43.567Z,79.17
2018-11-14T11:49:43.553Z,79.03
2018-11-14T11:50:43.548Z,79.03
2018-11-14T11:51:43.551Z,77.80
2018-11-14T11:52:43.538Z,78.01
2018-11-14T11:53:43.509Z,78.08
2018-11-14T11:54:43.502Z,77.56
2018-11-14T11:55:43.493Z,77.87
2018-11-14T11:56:43.482Z,77.76
2018-11-14T11:57:43.486Z,77.26
2018-11-14T11:58:43.474Z,76.84
2018-11-14T11:59:43.567Z,76.95
2018-11-14T12:00:43.617Z,76.30
2018-11-14T12:01:43.427Z,75.48
2018-11-14T12:02:43.431Z,75.59
2018-11-14T12:03:43.406Z,76.09
2018-11-14T12:04:43.424Z,75.89
2018-11-14T12:05:43.424Z,75.55
2018-11-14T12:06:43.376Z,75.55
2018-11-14T12:07:43.383Z,74.84
2018-11-14T12:08:43.347Z,75.00
2018-11-14T12:09:43.339Z,73.88
2018-11-14T12:10:43.405Z,73.36
2018-11-14T12:11:43.336Z,73.68
2018-11-14T12:12:43.337Z,73.57
2018-11-14T12:13:43.354Z,73.50
2018-11-14T12:14:43.285Z,73.47
2018-11-14T12:15:43.274Z,73.36
2018-11-14T12:16:43.321Z,73.77
2018-11-14T12:17:43.353Z,73.23
2018-11-14T12:18:43.240Z,72.82
2018-11-14T12:19:43.234Z,72.41
2018-11-14T12:20:43.221Z,72.21
2018-11-14T12:21:43.209Z,72.41
2018-11-14T12:22:43.219Z,72.11
2018-11-14T12:23:43.265Z,71.70
2018-11-14T12:24:43.177Z,71.91
2018-11-14T12:25:43.170Z,71.80
2018-11-14T12:26:43.159Z,72.00
2018-11-14T12:27:43.224Z,72.31
2018-11-14T12:28:43.135Z,72.11
2018-11-14T12:29:43.178Z,72.62
2018-11-14T12:30:43.270Z,72.21
2018-11-14T12:31:43.120Z,72.21
2018-11-14T12:32:43.132Z,72.52
2018-11-14T12:33:43.084Z,72.00
2018-11-14T12:34:43.200Z,71.39
2018-11-14T12:35:43.166Z,72.07
2018-11-14T12:36:43.054Z,71.67
2018-11-14T12:37:43.062Z,71.46
2018-11-14T12:38:43.160Z,71.26
2018-11-14T12:39:43.015Z,71.36
2018-11-14T12:40:43.008Z,71.59
2018-11-14T12:41:43.008Z,71.46
2018-11-14T12:42:43.021Z,70.85
2018-11-14T12:43:42.976Z,71.26
2018-11-14T12:44:42.961Z,71.46
2018-11-14T12:45:42.951Z,70.40
2018-11-14T12:46:42.940Z,70.75
2018-11-14T12:47:43.005Z,70.85
2018-11-14T12:48:42.920Z,70.95
2018-11-14T12:49:42.911Z,70.85
2018-11-14T12:50:42.898Z,71.15
2018-11-14T12:51:42.884Z,71.36
2018-11-14T12:52:42.991Z,71.26
2018-11-14T12:53:42.878Z,71.26
2018-11-14T12:54:42.856Z,71.67
2018-11-14T12:55:42.841Z,71.36
2018-11-14T12:56:42.832Z,71.56
2018-11-14T12:57:42.846Z,71.26